createdAt,value
2019-06-13T00:00:19.053Z,36.20
2019-06-13T00:01:16.057Z,37.90
2019-06-13T00:02:16.019Z,39.80
2019-06-13T00:03:18.702Z,38.50
2019-06-13T00:04:16.024Z,38.10
2019-06-13T00:05:16.009Z,38.30
2019-06-13T00:06:15.999Z,38.60
2019-06-13T00:07:15.983Z,39.30
2019-06-13T00:08:15.975Z,38.40
2019-06-13T00:09:15.976Z,40.70
2019-06-13T00:10:18.553Z,39.70
2019-06-13T00:11:15.949Z,39.40
2019-06-13T00:12:15.953Z,37.60
2019-06-13T00:13:15.950Z,37.90
2019-06-13T00:14:18.547Z,37.20
2019-06-13T00:15:15.925Z,37.40
2019-06-13T00:16:15.905Z,39.20
2019-06-13T00:17:15.895Z,37.90
2019-06-13T00:18:15.881Z,38.30
2019-06-13T00:19:15.890Z,37.50
2019-06-13T00:20:15.875Z,37.60
2019-06-13T00:21:15.882Z,36.00
2019-06-13T00:22:17.706Z,36.10
2019-06-13T00:23:15.825Z,36.70
2019-06-13T00:24:15.808Z,36.70
2019-06-13T00:25:15.816Z,35.70
2019-06-13T00:26:15.811Z,35.30
2019-06-13T00:27:15.803Z,37.30
2019-06-13T00:28:15.830Z,35.80
2019-06-13T00:29:15.774Z,38.00
2019-06-13T00:30:15.777Z,38.10
2019-06-13T00:31:15.750Z,37.80
2019-06-13T00:32:15.754Z,38.30
2019-06-13T00:33:15.741Z,38.00
2019-06-13T00:34:15.744Z,38.40
2019-06-13T00:35:15.739Z,38.70
2019-06-13T00:36:15.700Z,38.70
2019-06-13T00:37:15.691Z,38.70
2019-06-13T00:38:15.685Z,38.50
2019-06-13T00:39:15.691Z,38.90
2019-06-13T00:40:15.661Z,39.30
2019-06-13T00:41:15.661Z,38.50
2019-06-13T00:42:15.640Z,38.10
2019-06-13T00:43:15.639Z,39.30
2019-06-13T00:44:15.641Z,40.90
2019-06-13T00:45:15.620Z,42.10
2019-06-13T00:46:15.613Z,41.60
2019-06-13T00:47:15.586Z,43.20
2019-06-13T00:48:15.598Z,44.20
2019-06-13T00:49:15.593Z,47.00
2019-06-13T00:50:15.575Z,48.40
2019-06-13T00:51:15.566Z,51.10
2019-06-13T00:52:15.565Z,54.30
2019-06-13T00:53:15.558Z,55.30
2019-06-13T00:54:15.537Z,56.00
2019-06-13T00:55:15.547Z,51.00
2019-06-13T00:56:15.509Z,52.70
2019-06-13T00:57:15.519Z,52.40
2019-06-13T00:58:15.482Z,52.00
2019-06-13T00:59:15.492Z,52.10
2019-06-13T01:00:15.471Z,52.60
2019-06-13T01:01:15.470Z,53.40
2019-06-13T01:02:15.456Z,54.90
2019-06-13T01:03:15.436Z,53.40
2019-06-13T01:04:15.430Z,55.70
2019-06-13T01:05:15.407Z,55.90
2019-06-13T01:06:22.237Z,56.90
2019-06-13T01:07:15.406Z,54.30
2019-06-13T01:08:15.382Z,56.00
2019-06-13T01:09:15.418Z,55.20
2019-06-13T01:10:15.463Z,54.40
2019-06-13T01:11:15.341Z,55.60
2019-06-13T01:12:15.341Z,53.40
2019-06-13T01:13:15.357Z,56.00
2019-06-13T01:14:15.318Z,55.60
2019-06-13T01:15:15.334Z,56.30
2019-06-13T01:16:15.323Z,55.50
2019-06-13T01:17:15.311Z,58.70
2019-06-13T01:18:15.291Z,64.60
2019-06-13T01:19:15.298Z,66.90
2019-06-13T01:20:15.310Z,70.20
2019-06-13T01:21:15.260Z,68.20
2019-06-13T01:22:15.249Z,62.10
2019-06-13T01:23:15.241Z,61.50
2019-06-13T01:24:15.256Z,61.60
2019-06-13T01:25:15.225Z,59.60
2019-06-13T01:26:15.228Z,57.70
2019-06-13T01:27:15.198Z,54.40
2019-06-13T01:28:15.195Z,54.70
2019-06-13T01:29:15.200Z,53.50
2019-06-13T01:30:15.175Z,53.70
2019-06-13T01:31:15.187Z,54.60
2019-06-13T01:32:15.174Z,55.20
2019-06-13T01:33:15.164Z,56.50
2019-06-13T01:34:15.148Z,55.70
2019-06-13T01:35:15.144Z,59.50
2019-06-13T01:36:15.104Z,60.60
2019-06-13T01:37:15.097Z,58.30
2019-06-13T01:38:15.099Z,56.90
2019-06-13T01:39:15.123Z,55.40
2019-06-13T01:40:15.096Z,54.40
2019-06-13T01:41:15.053Z,56.60
2019-06-13T01:42:15.051Z,56.10
2019-06-13T01:43:15.072Z,55.60
2019-06-13T01:44:15.044Z,57.30
2019-06-13T01:45:15.073Z,57.60
2019-06-13T01:46:15.032Z,57.70
2019-06-13T01:47:15.001Z,59.40
2019-06-13T01:48:23.050Z,62.00
2019-06-13T01:49:14.989Z,66.20
2019-06-13T01:50:14.972Z,67.60
2019-06-13T01:51:14.956Z,66.30
2019-06-13T01:52:14.950Z,66.40
2019-06-13T01:53:14.948Z,65.30
2019-06-13T01:54:14.932Z,63.80
2019-06-13T01:55:14.937Z,62.60
2019-06-13T01:56:14.911Z,62.50
2019-06-13T01:57:14.922Z,64.00
2019-06-13T01:58:14.899Z,63.70
2019-06-13T01:59:14.898Z,62.20
2019-06-13T02:00:28.871Z,63.40
2019-06-13T02:01:14.871Z,61.80
2019-06-13T02:02:14.856Z,62.30
2019-06-13T02:03:14.855Z,61.80
2019-06-13T02:04:14.842Z,65.50
2019-06-13T02:05:14.833Z,63.00
2019-06-13T02:06:14.816Z,62.20
2019-06-13T02:07:14.812Z,61.40
2019-06-13T02:08:14.793Z,63.30
2019-06-13T02:09:14.798Z,63.10
2019-06-13T02:10:14.764Z,67.70
2019-06-13T02:11:14.783Z,64.50
2019-06-13T02:12:14.768Z,65.80
2019-06-13T02:13:14.748Z,67.40
2019-06-13T02:14:14.768Z,67.70
2019-06-13T02:15:14.736Z,67.20
2019-06-13T02:16:14.716Z,65.70
2019-06-13T02:17:14.723Z,66.40
2019-06-13T02:18:14.709Z,66.90
2019-06-13T02:19:14.676Z,66.30
2019-06-13T02:20:14.671Z,66.70
2019-06-13T02:21:14.673Z,64.10
2019-06-13T02:22:14.662Z,63.90
2019-06-13T02:23:14.666Z,64.80
2019-06-13T02:24:14.629Z,67.70
2019-06-13T02:25:14.630Z,65.00
2019-06-13T02:26:14.628Z,66.40
2019-06-13T02:27:14.629Z,67.70
2019-06-13T02:28:14.595Z,68.50
2019-06-13T02:29:14.579Z,67.50
2019-06-13T02:30:14.564Z,68.10
2019-06-13T02:31:14.564Z,68.60
2019-06-13T02:32:21.034Z,69.10
2019-06-13T02:33:14.539Z,67.90
2019-06-13T02:34:14.542Z,67.60
2019-06-13T02:35:14.539Z,68.00
2019-06-13T02:36:14.517Z,68.80
2019-06-13T02:37:28.330Z,66.50
2019-06-13T02:38:14.497Z,67.50
2019-06-13T02:39:14.497Z,66.00
2019-06-13T02:40:14.497Z,66.10
2019-06-13T02:41:14.452Z,65.10
2019-06-13T02:42:14.470Z,66.80
2019-06-13T02:43:14.487Z,64.70
2019-06-13T02:44:14.449Z,63.90
2019-06-13T02:45:14.437Z,64.60
2019-06-13T02:46:14.412Z,66.60
2019-06-13T02:47:14.394Z,65.40
2019-06-13T02:48:14.403Z,66.50
2019-06-13T02:49:14.431Z,67.50
2019-06-13T02:50:14.379Z,66.00
2019-06-13T02:51:14.349Z,65.10
2019-06-13T02:52:14.364Z,65.20
2019-06-13T02:53:14.355Z,65.70
2019-06-13T02:54:14.321Z,65.30
2019-06-13T02:55:14.336Z,69.60
2019-06-13T02:56:16.582Z,66.50
2019-06-13T02:57:14.298Z,66.50
2019-06-13T02:58:14.301Z,67.80
2019-06-13T02:59:14.270Z,68.90
2019-06-13T03:00:14.281Z,68.60
2019-06-13T03:01:14.251Z,67.30
2019-06-13T03:02:14.383Z,70.20
2019-06-13T03:03:14.237Z,66.00
2019-06-13T03:04:14.276Z,69.00
2019-06-13T03:05:14.235Z,69.60
2019-06-13T03:06:14.209Z,68.50
2019-06-13T03:07:14.215Z,68.00
2019-06-13T03:08:14.201Z,69.00
2019-06-13T03:09:14.185Z,70.60
2019-06-13T03:10:14.183Z,68.20
2019-06-13T03:11:14.171Z,69.90
2019-06-13T03:12:14.305Z,69.00
2019-06-13T03:13:14.131Z,69.40
2019-06-13T03:14:14.104Z,69.10
2019-06-13T03:15:14.120Z,68.00
2019-06-13T03:16:14.108Z,70.00
2019-06-13T03:17:14.246Z,71.70
2019-06-13T03:18:14.076Z,73.00
2019-06-13T03:19:14.065Z,72.40
2019-06-13T03:20:14.071Z,71.00
2019-06-13T03:21:14.057Z,69.90
2019-06-13T03:22:14.027Z,71.60
2019-06-13T03:23:14.041Z,72.80
2019-06-13T03:24:14.010Z,71.80
2019-06-13T03:25:14.008Z,71.00
2019-06-13T03:26:13.996Z,74.10
2019-06-13T03:27:13.986Z,72.60
2019-06-13T03:28:14.066Z,70.30
2019-06-13T03:29:14.010Z,71.20
2019-06-13T03:30:21.576Z,72.20
2019-06-13T03:31:13.934Z,71.50
2019-06-13T03:32:13.929Z,70.40
2019-06-13T03:33:13.923Z,72.70
2019-06-13T03:34:13.897Z,70.50
2019-06-13T03:35:13.906Z,70.40
2019-06-13T03:36:13.924Z,72.80
2019-06-13T03:37:13.878Z,71.60
2019-06-13T03:38:13.847Z,72.30
2019-06-13T03:39:13.862Z,68.70
2019-06-13T03:40:22.796Z,70.60
2019-06-13T03:41:13.831Z,72.40
2019-06-13T03:42:13.833Z,72.00
2019-06-13T03:43:13.791Z,71.60
2019-06-13T03:44:13.776Z,74.00
2019-06-13T03:45:13.770Z,73.80
2019-06-13T03:46:13.758Z,73.80
2019-06-13T03:47:13.804Z,72.30
2019-06-13T03:48:13.748Z,73.00
2019-06-13T03:49:13.743Z,71.90
2019-06-13T03:50:13.725Z,73.90
2019-06-13T03:51:13.817Z,75.20
2019-06-13T03:52:13.706Z,74.00
2019-06-13T03:53:13.726Z,76.10
2019-06-13T03:54:13.674Z,75.00
2019-06-13T03:55:13.717Z,75.00
2019-06-13T03:56:13.672Z,76.40
2019-06-13T03:57:13.666Z,74.40
2019-06-13T03:58:13.648Z,76.30
2019-06-13T03:59:13.623Z,75.60
2019-06-13T04:00:13.617Z,76.70
2019-06-13T04:01:16.331Z,76.80
2019-06-13T04:02:13.596Z,75.60
2019-06-13T04:03:13.595Z,77.70
2019-06-13T04:04:13.568Z,75.20
2019-06-13T04:05:13.557Z,77.10
2019-06-13T04:06:13.552Z,75.80
2019-06-13T04:07:13.555Z,76.00
2019-06-13T04:08:20.116Z,75.20
2019-06-13T04:09:13.518Z,77.90
2019-06-13T04:10:13.503Z,78.60
2019-06-13T04:11:13.520Z,80.60
2019-06-13T04:12:13.497Z,79.00
2019-06-13T04:13:13.472Z,79.60
2019-06-13T04:14:13.460Z,76.80
2019-06-13T04:15:13.451Z,80.60
2019-06-13T04:16:13.444Z,77.60
2019-06-13T04:17:13.436Z,77.20
2019-06-13T04:18:13.419Z,80.20
2019-06-13T04:19:13.419Z,78.90
2019-06-13T04:20:13.404Z,81.70
2019-06-13T04:21:13.394Z,79.70
2019-06-13T04:22:13.388Z,80.30
2019-06-13T04:23:13.369Z,82.20
2019-06-13T04:24:13.373Z,84.80
2019-06-13T04:25:13.344Z,81.40
2019-06-13T04:26:13.334Z,83.50
2019-06-13T04:27:13.317Z,82.10
2019-06-13T04:28:13.317Z,82.20
2019-06-13T04:29:13.310Z,82.00
2019-06-13T04:30:46.101Z,81.30
2019-06-13T04:31:13.283Z,84.50
2019-06-13T04:32:13.278Z,86.60
2019-06-13T04:33:13.267Z,85.50
2019-06-13T04:34:13.245Z,84.40
2019-06-13T04:35:13.245Z,85.10
2019-06-13T04:36:13.220Z,84.40
2019-06-13T04:37:13.225Z,88.10
2019-06-13T04:38:13.208Z,90.10
2019-06-13T04:39:13.186Z,86.50
2019-06-13T04:40:13.189Z,88.10
2019-06-13T04:41:13.218Z,85.40
2019-06-13T04:42:13.149Z,87.80
2019-06-13T04:43:13.161Z,88.00
2019-06-13T04:44:13.149Z,87.90
2019-06-13T04:45:13.123Z,85.30
2019-06-13T04:46:13.128Z,87.10
2019-06-13T04:47:13.118Z,87.60
2019-06-13T04:48:13.111Z,90.10
2019-06-13T04:49:13.102Z,87.20
2019-06-13T04:50:13.057Z,93.30
2019-06-13T04:51:13.072Z,99.80
2019-06-13T04:52:13.039Z,104.40
2019-06-13T04:53:13.029Z,107.60
2019-06-13T04:54:13.040Z,109.80
2019-06-13T04:55:13.039Z,109.10
2019-06-13T04:56:13.011Z,108.60
2019-06-13T04:57:12.998Z,112.90
2019-06-13T04:58:12.987Z,113.00
2019-06-13T04:59:12.977Z,113.60
2019-06-13T05:00:14.736Z,117.50
2019-06-13T05:01:12.985Z,111.90
2019-06-13T05:02:12.956Z,113.00
2019-06-13T05:03:12.945Z,113.20
2019-06-13T05:04:12.915Z,110.70
2019-06-13T05:05:12.937Z,115.10
2019-06-13T05:06:12.897Z,112.40
2019-06-13T05:07:12.937Z,114.00
2019-06-13T05:08:12.894Z,114.70
2019-06-13T05:09:12.853Z,115.70
2019-06-13T05:10:13.720Z,118.40
2019-06-13T05:11:12.855Z,119.30
2019-06-13T05:12:12.826Z,120.60
2019-06-13T05:13:12.815Z,117.70
2019-06-13T05:14:12.806Z,112.40
2019-06-13T05:15:12.792Z,114.90
2019-06-13T05:16:12.813Z,115.20
2019-06-13T05:17:12.826Z,111.90
2019-06-13T05:18:12.751Z,113.30
2019-06-13T05:19:12.755Z,111.40
2019-06-13T05:20:12.748Z,113.10
2019-06-13T05:21:12.748Z,110.70
2019-06-13T05:22:12.716Z,110.80
2019-06-13T05:23:12.697Z,114.50
2019-06-13T05:24:12.713Z,112.30
2019-06-13T05:25:12.695Z,111.80
2019-06-13T05:26:12.672Z,115.70
2019-06-13T05:27:12.662Z,115.30
2019-06-13T05:28:12.669Z,110.20
2019-06-13T05:29:12.665Z,109.60
2019-06-13T05:30:15.004Z,110.60
2019-06-13T05:31:12.625Z,112.20
2019-06-13T05:32:12.627Z,113.20
2019-06-13T05:33:14.090Z,112.80
2019-06-13T05:34:12.597Z,112.50
2019-06-13T05:35:12.579Z,114.10
2019-06-13T05:36:12.575Z,114.80
2019-06-13T05:37:12.571Z,113.50
2019-06-13T05:38:12.527Z,113.80
2019-06-13T05:39:16.387Z,112.00
2019-06-13T05:40:12.537Z,114.20
2019-06-13T05:41:12.521Z,114.40
2019-06-13T05:42:12.486Z,112.60
2019-06-13T05:43:12.511Z,114.80
2019-06-13T05:44:12.464Z,114.40
2019-06-13T05:45:12.467Z,115.90
2019-06-13T05:46:12.466Z,107.60
2019-06-13T05:47:12.438Z,108.00
2019-06-13T05:48:12.439Z,107.60
2019-06-13T05:49:12.419Z,107.50
2019-06-13T05:50:12.418Z,109.40
2019-06-13T05:51:12.401Z,106.90
2019-06-13T05:52:12.392Z,109.30
2019-06-13T05:53:12.393Z,105.90
2019-06-13T05:54:12.378Z,108.00
2019-06-13T05:55:12.342Z,106.80
2019-06-13T05:56:12.332Z,105.60
2019-06-13T05:57:12.320Z,110.00
2019-06-13T05:58:12.326Z,108.90
2019-06-13T05:59:12.327Z,110.30
2019-06-13T06:00:12.302Z,114.50
2019-06-13T06:01:12.291Z,116.20
2019-06-13T06:02:12.283Z,113.30
2019-06-13T06:03:12.276Z,110.60
2019-06-13T06:04:12.269Z,112.40
2019-06-13T06:05:12.254Z,114.30
2019-06-13T06:06:12.240Z,112.50
2019-06-13T06:07:12.207Z,110.90
2019-06-13T06:08:12.231Z,113.60
2019-06-13T06:09:30.753Z,113.30
2019-06-13T06:10:12.195Z,113.20
2019-06-13T06:11:13.391Z,116.70
2019-06-13T06:12:12.173Z,116.70
2019-06-13T06:13:12.169Z,115.30
2019-06-13T06:14:12.123Z,114.40
2019-06-13T06:15:12.140Z,116.20
2019-06-13T06:16:12.111Z,112.30
2019-06-13T06:17:12.112Z,114.80
2019-06-13T06:18:12.107Z,113.30
2019-06-13T06:19:12.081Z,112.80
2019-06-13T06:20:12.095Z,107.00
2019-06-13T06:21:12.062Z,108.10
2019-06-13T06:22:12.050Z,109.80
2019-06-13T06:23:17.132Z,109.90
2019-06-13T06:24:15.046Z,106.10
2019-06-13T06:25:12.924Z,108.60
2019-06-13T06:26:11.999Z,105.70
2019-06-13T06:27:11.998Z,108.40
2019-06-13T06:28:11.986Z,108.30
2019-06-13T06:29:11.987Z,107.90
2019-06-13T06:30:13.658Z,112.90
2019-06-13T06:31:11.958Z,111.10
2019-06-13T06:32:11.944Z,108.50
2019-06-13T06:33:11.925Z,111.40
2019-06-13T06:34:11.924Z,110.50
2019-06-13T06:35:11.914Z,107.60
2019-06-13T06:36:11.882Z,112.40
2019-06-13T06:37:11.870Z,108.10
2019-06-13T06:38:11.895Z,107.40
2019-06-13T06:39:11.850Z,107.90
2019-06-13T06:40:11.850Z,110.00
2019-06-13T06:41:11.837Z,110.80
2019-06-13T06:42:11.843Z,110.00
2019-06-13T06:43:11.810Z,110.10
2019-06-13T06:44:11.799Z,112.40
2019-06-13T06:45:11.796Z,110.80
2019-06-13T06:46:11.780Z,111.80
2019-06-13T06:47:11.778Z,107.40
2019-06-13T06:48:11.776Z,109.10
2019-06-13T06:49:11.729Z,106.80
2019-06-13T06:50:11.739Z,110.60
2019-06-13T06:51:11.728Z,111.70
2019-06-13T06:52:11.713Z,109.70
2019-06-13T06:53:11.714Z,112.40
2019-06-13T06:54:11.715Z,108.20
2019-06-13T06:55:11.677Z,110.60
2019-06-13T06:56:11.688Z,103.30
2019-06-13T06:57:11.643Z,100.00
2019-06-13T06:58:11.632Z,100.40
2019-06-13T06:59:11.633Z,94.90
2019-06-13T07:00:12.051Z,94.40
2019-06-13T07:01:11.619Z,94.80
2019-06-13T07:02:11.608Z,91.10
2019-06-13T07:03:11.606Z,91.70
2019-06-13T07:04:14.382Z,88.00
2019-06-13T07:05:11.558Z,91.50
2019-06-13T07:06:11.567Z,92.80
2019-06-13T07:07:11.596Z,95.80
2019-06-13T07:08:11.540Z,94.20
2019-06-13T07:09:11.517Z,97.00
2019-06-13T07:10:17.481Z,93.60
2019-06-13T07:11:11.497Z,95.00
2019-06-13T07:12:11.488Z,96.20
2019-06-13T07:13:11.485Z,94.50
2019-06-13T07:14:20.626Z,95.70
2019-06-13T07:15:11.436Z,93.50
2019-06-13T07:16:11.447Z,94.50
2019-06-13T07:17:11.422Z,95.90
2019-06-13T07:18:11.404Z,92.30
2019-06-13T07:19:11.406Z,93.60
2019-06-13T07:20:11.398Z,94.00
2019-06-13T07:21:11.407Z,94.20
2019-06-13T07:22:11.388Z,94.00
2019-06-13T07:23:11.374Z,95.40
2019-06-13T07:24:11.358Z,96.60
2019-06-13T07:25:11.351Z,98.10
2019-06-13T07:26:11.336Z,107.70
2019-06-13T07:27:11.581Z,116.50
2019-06-13T07:28:11.286Z,121.70
2019-06-13T07:29:11.301Z,123.40
2019-06-13T07:30:14.956Z,126.50
2019-06-13T07:31:11.279Z,119.10
2019-06-13T07:32:11.278Z,123.40
2019-06-13T07:33:11.246Z,119.30
2019-06-13T07:34:11.506Z,117.20
2019-06-13T07:35:11.223Z,123.40
2019-06-13T07:36:11.211Z,124.50
2019-06-13T07:37:11.227Z,123.50
2019-06-13T07:38:11.195Z,122.10
2019-06-13T07:39:11.183Z,119.50
2019-06-13T07:40:27.767Z,121.30
2019-06-13T07:41:11.164Z,122.90
2019-06-13T07:42:11.154Z,123.40
2019-06-13T07:43:11.142Z,121.10
2019-06-13T07:44:14.339Z,122.10
2019-06-13T07:45:11.126Z,122.20
2019-06-13T07:46:11.084Z,120.80
2019-06-13T07:47:11.108Z,121.30
2019-06-13T07:48:12.713Z,120.50
2019-06-13T07:49:11.060Z,120.50
2019-06-13T07:50:11.056Z,117.20
2019-06-13T07:51:11.046Z,117.70
2019-06-13T07:52:11.032Z,114.50
2019-06-13T07:53:11.048Z,115.90
2019-06-13T07:54:11.005Z,114.60
2019-06-13T07:55:12.035Z,120.10
2019-06-13T07:56:10.996Z,120.60
2019-06-13T07:57:10.964Z,116.80
2019-06-13T07:58:10.968Z,123.70
2019-06-13T07:59:11.077Z,115.80
2019-06-13T08:00:10.944Z,118.70
2019-06-13T08:01:11.706Z,119.00
2019-06-13T08:02:10.954Z,119.70
2019-06-13T08:03:10.932Z,120.00
2019-06-13T08:04:11.258Z,117.80
2019-06-13T08:05:10.881Z,120.80
2019-06-13T08:06:10.867Z,119.10
2019-06-13T08:07:10.852Z,117.60
2019-06-13T08:08:10.875Z,118.80
2019-06-13T08:09:10.820Z,119.50
2019-06-13T08:10:12.401Z,120.40
2019-06-13T08:11:10.810Z,118.50
2019-06-13T08:12:10.811Z,118.50
2019-06-13T08:13:10.872Z,119.90
2019-06-13T08:14:10.781Z,117.60
2019-06-13T08:15:10.808Z,114.10
2019-06-13T08:16:26.032Z,113.70
2019-06-13T08:17:11.048Z,113.60
2019-06-13T08:18:10.711Z,113.00
2019-06-13T08:19:10.721Z,111.60
2019-06-13T08:20:10.715Z,111.50
2019-06-13T08:21:10.699Z,112.60
2019-06-13T08:22:10.844Z,112.20
2019-06-13T08:23:18.074Z,109.90
2019-06-13T08:24:10.653Z,110.20
2019-06-13T08:25:10.641Z,109.10
2019-06-13T08:26:13.331Z,113.90
2019-06-13T08:27:10.619Z,112.90
2019-06-13T08:28:10.632Z,111.80
2019-06-13T08:29:10.600Z,109.80
2019-06-13T08:30:10.648Z,108.60
2019-06-13T08:31:10.584Z,109.50
2019-06-13T08:32:10.557Z,108.60
2019-06-13T08:33:10.571Z,111.00
2019-06-13T08:34:10.538Z,108.40
2019-06-13T08:35:10.541Z,108.90
2019-06-13T08:36:10.503Z,108.30
2019-06-13T08:37:12.316Z,108.50
2019-06-13T08:38:10.486Z,111.10
2019-06-13T08:39:10.474Z,109.80
2019-06-13T08:40:10.490Z,108.40
2019-06-13T08:41:19.146Z,107.40
2019-06-13T08:42:10.435Z,111.80
2019-06-13T08:43:15.285Z,112.70
2019-06-13T08:44:11.172Z,107.90
2019-06-13T08:45:10.409Z,107.90
2019-06-13T08:46:10.724Z,106.20
2019-06-13T08:47:10.833Z,107.30
2019-06-13T08:48:11.031Z,110.50
2019-06-13T08:49:16.204Z,110.90
2019-06-13T08:50:10.347Z,110.00
2019-06-13T08:51:10.555Z,108.30
2019-06-13T08:52:10.341Z,105.20
2019-06-13T08:53:10.614Z,104.90
2019-06-13T08:54:10.401Z,100.90
2019-06-13T08:55:10.780Z,99.90
2019-06-13T08:56:10.316Z,99.90
2019-06-13T08:57:10.378Z,94.80
2019-06-13T08:58:10.348Z,92.20
2019-06-13T08:59:10.528Z,95.20
2019-06-13T09:00:10.249Z,91.90
2019-06-13T09:01:10.815Z,90.20
2019-06-13T09:02:11.076Z,92.50
2019-06-13T09:03:10.397Z,92.60
2019-06-13T09:04:10.923Z,93.10
2019-06-13T09:05:11.216Z,97.90
2019-06-13T09:06:13.948Z,94.70
2019-06-13T09:07:10.165Z,97.50
2019-06-13T09:08:15.881Z,96.40
2019-06-13T09:09:10.184Z,94.90
2019-06-13T09:10:10.640Z,96.20
2019-06-13T09:11:10.107Z,96.50
2019-06-13T09:12:10.498Z,97.40
2019-06-13T09:13:10.080Z,96.70
2019-06-13T09:14:11.363Z,104.30
2019-06-13T09:15:10.061Z,105.90
2019-06-13T09:16:10.391Z,104.60
2019-06-13T09:17:12.584Z,102.40
2019-06-13T09:18:10.012Z,103.80
2019-06-13T09:19:10.406Z,106.60
2019-06-13T09:20:10.425Z,106.00
2019-06-13T09:21:10.998Z,103.70
2019-06-13T09:22:10.355Z,102.30
2019-06-13T09:23:11.225Z,102.20
2019-06-13T09:24:10.270Z,99.30
2019-06-13T09:25:12.090Z,103.10
2019-06-13T09:26:10.493Z,98.90
2019-06-13T09:27:09.947Z,97.40
2019-06-13T09:28:09.978Z,100.00
2019-06-13T09:29:10.398Z,100.20
2019-06-13T09:30:09.929Z,96.40
2019-06-13T09:31:10.775Z,97.00
2019-06-13T09:32:10.383Z,98.90
2019-06-13T09:33:18.891Z,98.70
2019-06-13T09:34:14.179Z,94.90
2019-06-13T09:35:10.194Z,91.30
2019-06-13T09:36:11.148Z,91.80
2019-06-13T09:37:10.012Z,95.50
2019-06-13T09:38:10.367Z,92.40
2019-06-13T09:39:20.130Z,93.10
2019-06-13T09:40:10.671Z,94.70
2019-06-13T09:41:11.350Z,92.40
2019-06-13T09:42:18.573Z,91.70
2019-06-13T09:43:10.490Z,93.40
2019-06-13T09:44:11.294Z,94.50
2019-06-13T09:45:11.341Z,91.80
2019-06-13T09:46:10.291Z,93.00
2019-06-13T09:47:10.854Z,92.90
2019-06-13T09:48:11.581Z,93.60
2019-06-13T09:49:10.733Z,92.30
2019-06-13T09:50:11.274Z,94.00
2019-06-13T09:51:10.006Z,91.20
2019-06-13T09:52:10.176Z,96.90
2019-06-13T09:53:10.828Z,98.40
2019-06-13T09:54:10.707Z,101.00
2019-06-13T09:55:14.861Z,111.20
2019-06-13T09:56:10.597Z,117.90
2019-06-13T09:57:11.153Z,111.50
2019-06-13T09:58:09.611Z,123.10
2019-06-13T09:59:10.584Z,130.50
2019-06-13T10:00:17.407Z,127.00
2019-06-13T10:01:09.523Z,142.30
2019-06-13T10:02:09.528Z,138.30
2019-06-13T10:03:09.945Z,142.30
2019-06-13T10:04:09.487Z,140.90
2019-06-13T10:05:11.107Z,134.50
2019-06-13T10:06:18.676Z,129.10
2019-06-13T10:07:09.787Z,129.80
2019-06-13T10:08:09.746Z,129.30
2019-06-13T10:09:10.805Z,131.80
2019-06-13T10:10:10.566Z,123.10
2019-06-13T10:11:09.419Z,121.80
2019-06-13T10:12:30.855Z,117.20
2019-06-13T10:13:10.199Z,112.80
2019-06-13T10:14:10.328Z,110.70
2019-06-13T10:15:10.879Z,106.50
2019-06-13T10:16:10.879Z,102.70
2019-06-13T10:17:11.268Z,101.00
2019-06-13T10:18:11.388Z,103.90
2019-06-13T10:19:10.264Z,99.90
2019-06-13T10:20:22.568Z,98.80
2019-06-13T10:21:09.686Z,94.20
2019-06-13T10:22:16.917Z,97.80
2019-06-13T10:23:09.950Z,98.70
2019-06-13T10:24:29.391Z,96.20
2019-06-13T10:25:12.964Z,97.00
2019-06-13T10:26:19.415Z,98.40
2019-06-13T10:27:09.231Z,93.80
2019-06-13T10:28:10.659Z,92.10
2019-06-13T10:29:09.209Z,91.70
2019-06-13T10:30:11.237Z,92.00
2019-06-13T10:31:09.191Z,92.00
2019-06-13T10:32:09.164Z,92.40
2019-06-13T10:33:09.654Z,89.10
2019-06-13T10:34:09.134Z,92.90
2019-06-13T10:35:09.146Z,87.30
2019-06-13T10:36:09.767Z,85.00
2019-06-13T10:37:09.110Z,84.50
2019-06-13T10:38:11.423Z,84.40
2019-06-13T10:39:10.324Z,84.90
2019-06-13T10:40:10.665Z,82.40
2019-06-13T10:41:09.930Z,76.70
2019-06-13T10:42:09.950Z,78.70
2019-06-13T10:43:19.704Z,79.00
2019-06-13T10:44:09.699Z,76.90
2019-06-13T10:45:10.107Z,78.80
2019-06-13T10:46:09.751Z,76.30
2019-06-13T10:47:09.144Z,72.30
2019-06-13T10:48:09.363Z,71.60
2019-06-13T10:49:10.222Z,72.50
2019-06-13T10:50:09.431Z,71.80
2019-06-13T10:51:10.615Z,72.20
2019-06-13T10:52:09.978Z,72.80
2019-06-13T10:53:12.930Z,76.40
2019-06-13T10:54:08.906Z,76.90
2019-06-13T10:55:09.584Z,77.50
2019-06-13T10:56:08.890Z,76.70
2019-06-13T10:57:13.805Z,76.50
2019-06-13T10:58:10.071Z,77.10
2019-06-13T10:59:09.846Z,75.00
2019-06-13T11:00:09.691Z,78.80
2019-06-13T11:01:11.079Z,76.40
2019-06-13T11:02:09.625Z,75.20
2019-06-13T11:03:08.802Z,75.80
2019-06-13T11:04:10.772Z,75.10
2019-06-13T11:05:10.577Z,74.10
2019-06-13T11:06:11.195Z,72.10
2019-06-13T11:07:09.573Z,72.40
2019-06-13T11:08:15.730Z,72.60
2019-06-13T11:09:09.561Z,70.10
2019-06-13T11:10:11.821Z,70.80
2019-06-13T11:11:09.315Z,69.20
2019-06-13T11:12:08.722Z,67.90
2019-06-13T11:13:17.443Z,70.00
2019-06-13T11:14:10.175Z,69.50
2019-06-13T11:15:10.295Z,69.80
2019-06-13T11:16:10.308Z,66.70
2019-06-13T11:17:30.888Z,67.00
2019-06-13T11:18:08.687Z,70.00
2019-06-13T11:19:09.997Z,69.70
2019-06-13T11:20:09.460Z,72.40
2019-06-13T11:21:09.509Z,67.50
2019-06-13T11:22:10.555Z,66.30
2019-06-13T11:23:09.821Z,66.30
2019-06-13T11:24:10.075Z,67.60
2019-06-13T11:25:09.778Z,69.00
2019-06-13T11:26:08.571Z,68.30
2019-06-13T11:27:08.536Z,68.10
2019-06-13T11:28:09.816Z,67.60
2019-06-13T11:29:09.830Z,67.20
2019-06-13T11:30:11.633Z,66.00
2019-06-13T11:31:09.616Z,65.50
2019-06-13T11:32:08.496Z,66.80
2019-06-13T11:33:09.181Z,66.40
2019-06-13T11:34:09.339Z,66.50
2019-06-13T11:35:10.293Z,66.30
2019-06-13T11:36:09.151Z,66.10
2019-06-13T11:37:10.557Z,66.60
2019-06-13T11:38:11.073Z,62.90
2019-06-13T11:39:09.813Z,64.60
2019-06-13T11:40:25.041Z,59.20
2019-06-13T11:41:09.473Z,59.80
2019-06-13T11:42:14.330Z,61.30
2019-06-13T11:43:09.361Z,57.70
2019-06-13T11:44:11.372Z,58.00
2019-06-13T11:45:10.786Z,57.00
2019-06-13T11:46:09.913Z,56.30
2019-06-13T11:47:10.140Z,57.10
2019-06-13T11:48:10.517Z,57.20
2019-06-13T11:49:13.443Z,56.30
2019-06-13T11:50:09.675Z,56.30
2019-06-13T11:51:08.307Z,56.60
2019-06-13T11:52:08.324Z,54.30
2019-06-13T11:53:10.993Z,53.20
2019-06-13T11:54:09.826Z,50.60
2019-06-13T11:55:12.195Z,52.30
2019-06-13T11:56:10.052Z,53.60
2019-06-13T11:57:10.441Z,53.00
2019-06-13T11:58:08.274Z,49.70
2019-06-13T11:59:10.186Z,49.60
2019-06-13T12:00:19.923Z,49.70
2019-06-13T12:01:09.446Z,48.80
2019-06-13T12:02:10.182Z,49.50
2019-06-13T12:03:10.436Z,50.50
2019-06-13T12:04:10.281Z,51.40
2019-06-13T12:05:10.196Z,49.50
2019-06-13T12:06:10.180Z,48.40
2019-06-13T12:07:10.043Z,50.20
2019-06-13T12:08:15.288Z,50.00
2019-06-13T12:09:10.219Z,49.90
2019-06-13T12:10:09.725Z,46.70
2019-06-13T12:11:10.376Z,48.50
2019-06-13T12:12:09.989Z,47.00
2019-06-13T12:13:08.112Z,46.70
2019-06-13T12:14:14.450Z,46.10
2019-06-13T12:15:10.719Z,46.90
2019-06-13T12:16:09.474Z,44.80
2019-06-13T12:17:10.741Z,42.90
2019-06-13T12:18:09.507Z,42.80
2019-06-13T12:19:09.922Z,42.20
2019-06-13T12:20:10.151Z,43.70
2019-06-13T12:21:10.419Z,46.90
2019-06-13T12:22:10.248Z,48.10
2019-06-13T12:23:10.260Z,45.50
2019-06-13T12:24:09.832Z,48.20
2019-06-13T12:25:08.015Z,45.10
2019-06-13T12:26:08.001Z,43.10
2019-06-13T12:27:10.603Z,43.40
2019-06-13T12:28:07.971Z,46.50
2019-06-13T12:29:11.213Z,39.40
2019-06-13T12:30:09.006Z,45.20
2019-06-13T12:31:09.565Z,43.90
2019-06-13T12:32:07.977Z,42.00
2019-06-13T12:33:07.992Z,41.30
2019-06-13T12:34:10.333Z,40.90
2019-06-13T12:35:07.914Z,42.10
2019-06-13T12:36:10.784Z,41.80
2019-06-13T12:37:09.293Z,43.00
2019-06-13T12:38:09.312Z,43.10
2019-06-13T12:39:10.296Z,40.20
2019-06-13T12:40:09.418Z,39.60
2019-06-13T12:41:09.595Z,40.60
2019-06-13T12:42:09.756Z,38.50
2019-06-13T12:43:09.307Z,36.00
2019-06-13T12:44:21.982Z,38.50